sensor_id;sensor_type;location;lat;lon;timestamp;P1;durP1;ratioP1;P2;durP2;ratioP2
17796;SDS011;55596;53.554;9.916;2022-08-19T00:00:17;9.40;;;7.47;;
17796;SDS011;55596;53.554;9.916;2022-08-19T00:02:44;12.93;;;7.63;;
17796;SDS011;55596;53.554;9.916;2022-08-19T00:05:12;13.43;;;7.90;;
17796;SDS011;55596;53.554;9.916;2022-08-19T00:07:40;9.80;;;8.27;;
17796;SDS011;55596;53.554;9.916;2022-08-19T00:10:09;8.83;;;7.73;;
17796;SDS011;55596;53.554;9.916;2022-08-19T00:12:37;9.03;;;8.13;;
17796;SDS011;55596;53.554;9.916;2022-08-19T00:15:05;9.60;;;8.60;;
17796;SDS011;55596;53.554;9.916;2022-08-19T00:17:39;9.97;;;7.53;;
17796;SDS011;55596;53.554;9.916;2022-08-19T00:20:08;10.10;;;8.60;;
17796;SDS011;55596;53.554;9.916;2022-08-19T00:22:37;12.03;;;9.20;;
17796;SDS011;55596;53.554;9.916;2022-08-19T00:25:06;13.40;;;10.60;;
17796;SDS011;55596;53.554;9.916;2022-08-19T00:27:34;12.13;;;9.87;;
17796;SDS011;55596;53.554;9.916;2022-08-19T00:30:00;14.70;;;10.43;;
17796;SDS011;55596;53.554;9.916;2022-08-19T00:32:29;14.93;;;12.63;;
17796;SDS011;55596;53.554;9.916;2022-08-19T00:34:57;17.80;;;13.97;;
17796;SDS011;55596;53.554;9.916;2022-08-19T00:37:24;16.97;;;12.27;;
17796;SDS011;55596;53.554;9.916;2022-08-19T00:39:51;21.63;;;15.60;;
17796;SDS011;55596;53.554;9.916;2022-08-19T00:42:20;18.97;;;14.60;;
17796;SDS011;55596;53.554;9.916;2022-08-19T00:44:48;17.60;;;14.93;;
17796;SDS011;55596;53.554;9.916;2022-08-19T00:47:16;20.43;;;13.90;;
17796;SDS011;55596;53.554;9.916;2022-08-19T00:49:45;20.27;;;14.50;;
17796;SDS011;55596;53.554;9.916;2022-08-19T00:52:18;26.47;;;20.27;;
17796;SDS011;55596;53.554;9.916;2022-08-19T00:54:49;28.03;;;17.23;;
17796;SDS011;55596;53.554;9.916;2022-08-19T00:57:18;20.63;;;17.03;;
17796;SDS011;55596;53.554;9.916;2022-08-19T00:59:51;22.93;;;17.27;;
17796;SDS011;55596;53.554;9.916;2022-08-19T01:02:20;26.97;;;18.23;;
17796;SDS011;55596;53.554;9.916;2022-08-19T01:04:47;27.83;;;21.13;;
17796;SDS011;55596;53.554;9.916;2022-08-19T01:07:13;25.73;;;19.37;;
17796;SDS011;55596;53.554;9.916;2022-08-19T01:09:41;25.80;;;20.30;;
17796;SDS011;55596;53.554;9.916;2022-08-19T01:12:08;28.23;;;20.30;;
17796;SDS011;55596;53.554;9.916;2022-08-19T01:14:35;30.70;;;21.13;;
17796;SDS011;55596;53.554;9.916;2022-08-19T01:17:04;31.37;;;20.07;;
17796;SDS011;55596;53.554;9.916;2022-08-19T01:19:33;24.53;;;19.70;;
17796;SDS011;55596;53.554;9.916;2022-08-19T01:22:03;25.77;;;18.73;;
17796;SDS011;55596;53.554;9.916;2022-08-19T01:24:35;24.77;;;19.37;;
17796;SDS011;55596;53.554;9.916;2022-08-19T01:27:03;22.37;;;18.70;;
17796;SDS011;55596;53.554;9.916;2022-08-19T01:29:30;24.03;;;17.93;;
17796;SDS011;55596;53.554;9.916;2022-08-19T01:31:57;25.70;;;18.70;;
17796;SDS011;55596;53.554;9.916;2022-08-19T01:34:25;24.73;;;18.97;;
17796;SDS011;55596;53.554;9.916;2022-08-19T01:36:52;24.87;;;18.00;;
17796;SDS011;55596;53.554;9.916;2022-08-19T01:39:20;25.83;;;18.97;;
17796;SDS011;55596;53.554;9.916;2022-08-19T01:41:51;24.17;;;19.03;;
17796;SDS011;55596;53.554;9.916;2022-08-19T01:44:19;33.30;;;20.10;;
17796;SDS011;55596;53.554;9.916;2022-08-19T01:46:49;23.33;;;18.70;;
17796;SDS011;55596;53.554;9.916;2022-08-19T01:49:17;32.33;;;19.77;;
17796;SDS011;55596;53.554;9.916;2022-08-19T01:51:46;24.63;;;18.83;;
17796;SDS011;55596;53.554;9.916;2022-08-19T01:54:15;26.67;;;20.87;;
17796;SDS011;55596;53.554;9.916;2022-08-19T01:56:43;30.80;;;21.23;;
17796;SDS011;55596;53.554;9.916;2022-08-19T01:59:12;32.10;;;22.20;;
17796;SDS011;55596;53.554;9.916;2022-08-19T02:01:41;29.47;;;20.83;;
17796;SDS011;55596;53.554;9.916;2022-08-19T02:04:09;34.70;;;23.40;;
17796;SDS011;55596;53.554;9.916;2022-08-19T02:06:36;32.83;;;22.80;;
17796;SDS011;55596;53.554;9.916;2022-08-19T02:09:04;36.77;;;23.10;;
17796;SDS011;55596;53.554;9.916;2022-08-19T02:11:33;40.70;;;25.80;;
17796;SDS011;55596;53.554;9.916;2022-08-19T02:14:03;35.50;;;23.43;;
17796;SDS011;55596;53.554;9.916;2022-08-19T02:16:33;33.53;;;22.90;;
17796;SDS011;55596;53.554;9.916;2022-08-19T02:19:00;36.83;;;24.17;;
17796;SDS011;55596;53.554;9.916;2022-08-19T02:21:28;38.77;;;23.50;;
17796;SDS011;55596;53.554;9.916;2022-08-19T02:23:55;39.47;;;25.10;;
17796;SDS011;55596;53.554;9.916;2022-08-19T02:26:22;39.73;;;25.03;;
17796;SDS011;55596;53.554;9.916;2022-08-19T02:28:51;36.37;;;24.93;;
17796;SDS011;55596;53.554;9.916;2022-08-19T02:31:21;40.83;;;25.07;;
17796;SDS011;55596;53.554;9.916;2022-08-19T02:33:50;41.40;;;25.87;;
17796;SDS011;55596;53.554;9.916;2022-08-19T02:36:18;43.30;;;26.40;;
17796;SDS011;55596;53.554;9.916;2022-08-19T02:38:45;38.47;;;25.30;;
17796;SDS011;55596;53.554;9.916;2022-08-19T02:41:12;40.03;;;25.90;;
17796;SDS011;55596;53.554;9.916;2022-08-19T02:43:40;44.50;;;26.67;;
17796;SDS011;55596;53.554;9.916;2022-08-19T02:46:11;50.23;;;26.87;;
17796;SDS011;55596;53.554;9.916;2022-08-19T02:48:38;53.97;;;29.40;;
17796;SDS011;55596;53.554;9.916;2022-08-19T02:51:07;60.43;;;31.13;;
17796;SDS011;55596;53.554;9.916;2022-08-19T02:53:33;50.63;;;28.43;;
17796;SDS011;55596;53.554;9.916;2022-08-19T02:56:00;51.97;;;27.83;;
17796;SDS011;55596;53.554;9.916;2022-08-19T02:58:32;54.93;;;29.57;;
17796;SDS011;55596;53.554;9.916;2022-08-19T03:00:59;56.87;;;29.67;;
17796;SDS011;55596;53.554;9.916;2022-08-19T03:03:26;64.27;;;33.10;;
17796;SDS011;55596;53.554;9.916;2022-08-19T03:06:02;69.83;;;34.93;;
17796;SDS011;55596;53.554;9.916;2022-08-19T03:08:31;63.27;;;34.10;;
17796;SDS011;55596;53.554;9.916;2022-08-19T03:10:58;65.77;;;36.87;;
17796;SDS011;55596;53.554;9.916;2022-08-19T03:13:24;68.50;;;37.87;;
17796;SDS011;55596;53.554;9.916;2022-08-19T03:15:51;66.67;;;37.53;;
17796;SDS011;55596;53.554;9.916;2022-08-19T03:18:18;66.93;;;38.57;;
17796;SDS011;55596;53.554;9.916;2022-08-19T03:20:46;69.80;;;36.03;;
17796;SDS011;55596;53.554;9.916;2022-08-19T03:23:15;74.87;;;38.90;;
17796;SDS011;55596;53.554;9.916;2022-08-19T03:25:44;67.73;;;35.47;;
17796;SDS011;55596;53.554;9.916;2022-08-19T03:28:14;68.07;;;37.77;;
17796;SDS011;55596;53.554;9.916;2022-08-19T03:30:41;66.43;;;37.47;;
17796;SDS011;55596;53.554;9.916;2022-08-19T03:33:10;65.83;;;36.53;;
17796;SDS011;55596;53.554;9.916;2022-08-19T03:35:37;71.97;;;37.23;;
17796;SDS011;55596;53.554;9.916;2022-08-19T03:38:04;71.23;;;38.00;;
17796;SDS011;55596;53.554;9.916;2022-08-19T03:40:32;69.07;;;36.40;;
17796;SDS011;55596;53.554;9.916;2022-08-19T03:43:04;62.47;;;36.53;;
17796;SDS011;55596;53.554;9.916;2022-08-19T03:45:31;65.80;;;36.23;;
17796;SDS011;55596;53.554;9.916;2022-08-19T03:47:58;62.93;;;36.70;;
17796;SDS011;55596;53.554;9.916;2022-08-19T03:50:25;65.33;;;38.80;;
17796;SDS011;55596;53.554;9.916;2022-08-19T03:52:52;65.93;;;39.03;;
17796;SDS011;55596;53.554;9.916;2022-08-19T03:55:19;66.67;;;38.20;;
17796;SDS011;55596;53.554;9.916;2022-08-19T03:57:45;73.97;;;39.97;;
17796;SDS011;55596;53.554;9.916;2022-08-19T04:00:15;69.03;;;38.27;;
17796;SDS011;55596;53.554;9.916;2022-08-19T04:02:42;64.00;;;38.67;;
17796;SDS011;55596;53.554;9.916;2022-08-19T04:05:09;70.60;;;40.70;;
17796;SDS011;55596;53.554;9.916;2022-08-19T04:07:37;66.77;;;41.00;;
17796;SDS011;55596;53.554;9.916;2022-08-19T04:10:05;69.53;;;42.07;;
17796;SDS011;55596;53.554;9.916;2022-08-19T04:12:32;69.33;;;40.77;;
17796;SDS011;55596;53.554;9.916;2022-08-19T04:14:59;68.83;;;41.33;;
17796;SDS011;55596;53.554;9.916;2022-08-19T04:17:27;66.80;;;40.13;;
17796;SDS011;55596;53.554;9.916;2022-08-19T04:19:54;69.77;;;40.27;;
17796;SDS011;55596;53.554;9.916;2022-08-19T04:22:20;59.37;;;37.13;;
17796;SDS011;55596;53.554;9.916;2022-08-19T04:24:47;60.07;;;36.57;;
17796;SDS011;55596;53.554;9.916;2022-08-19T04:27:14;59.27;;;35.83;;
17796;SDS011;55596;53.554;9.916;2022-08-19T04:29:41;59.57;;;35.27;;
17796;SDS011;55596;53.554;9.916;2022-08-19T04:32:08;53.93;;;34.07;;
17796;SDS011;55596;53.554;9.916;2022-08-19T04:34:36;53.87;;;34.17;;
17796;SDS011;55596;53.554;9.916;2022-08-19T04:37:04;56.77;;;34.50;;
17796;SDS011;55596;53.554;9.916;2022-08-19T04:39:36;50.63;;;32.67;;
17796;SDS011;55596;53.554;9.916;2022-08-19T04:42:22;50.47;;;31.40;;
17796;SDS011;55596;53.554;9.916;2022-08-19T04:45:06;50.87;;;31.53;;
17796;SDS011;55596;53.554;9.916;2022-08-19T04:47:35;57.73;;;33.10;;
17796;SDS011;55596;53.554;9.916;2022-08-19T04:50:04;48.23;;;33.13;;
17796;SDS011;55596;53.554;9.916;2022-08-19T04:52:32;58.40;;;32.93;;
17796;SDS011;55596;53.554;9.916;2022-08-19T04:54:59;50.40;;;31.33;;
17796;SDS011;55596;53.554;9.916;2022-08-19T04:57:25;55.00;;;33.20;;
17796;SDS011;55596;53.554;9.916;2022-08-19T04:59:53;50.83;;;33.90;;
17796;SDS011;55596;53.554;9.916;2022-08-19T05:02:20;52.03;;;33.43;;
17796;SDS011;55596;53.554;9.916;2022-08-19T05:04:49;55.03;;;33.53;;
17796;SDS011;55596;53.554;9.916;2022-08-19T05:07:17;55.33;;;31.43;;
17796;SDS011;55596;53.554;9.916;2022-08-19T05:09:44;60.00;;;33.57;;
17796;SDS011;55596;53.554;9.916;2022-08-19T05:12:11;49.93;;;31.60;;
17796;SDS011;55596;53.554;9.916;2022-08-19T05:14:38;54.03;;;32.07;;
17796;SDS011;55596;53.554;9.916;2022-08-19T05:17:05;56.67;;;33.90;;
17796;SDS011;55596;53.554;9.916;2022-08-19T05:19:31;57.00;;;32.57;;
17796;SDS011;55596;53.554;9.916;2022-08-19T05:22:12;48.93;;;31.47;;
17796;SDS011;55596;53.554;9.916;2022-08-19T05:25:00;48.17;;;32.30;;
17796;SDS011;55596;53.554;9.916;2022-08-19T05:27:29;49.93;;;31.57;;
17796;SDS011;55596;53.554;9.916;2022-08-19T05:29:57;52.83;;;30.00;;
17796;SDS011;55596;53.554;9.916;2022-08-19T05:32:24;51.97;;;31.63;;
17796;SDS011;55596;53.554;9.916;2022-08-19T05:34:51;52.23;;;30.33;;
17796;SDS011;55596;53.554;9.916;2022-08-19T05:37:18;49.43;;;29.30;;
17796;SDS011;55596;53.554;9.916;2022-08-19T05:39:45;49.43;;;29.60;;
17796;SDS011;55596;53.554;9.916;2022-08-19T05:42:15;45.40;;;28.27;;
17796;SDS011;55596;53.554;9.916;2022-08-19T05:44:43;45.67;;;28.33;;
17796;SDS011;55596;53.554;9.916;2022-08-19T05:47:11;44.30;;;27.30;;
17796;SDS011;55596;53.554;9.916;2022-08-19T05:49:40;42.80;;;25.90;;
17796;SDS011;55596;53.554;9.916;2022-08-19T05:52:08;39.30;;;25.80;;
17796;SDS011;55596;53.554;9.916;2022-08-19T05:54:36;38.57;;;23.03;;
17796;SDS011;55596;53.554;9.916;2022-08-19T05:57:05;38.43;;;22.37;;
17796;SDS011;55596;53.554;9.916;2022-08-19T05:59:34;33.87;;;21.77;;
17796;SDS011;55596;53.554;9.916;2022-08-19T06:02:01;33.57;;;22.07;;
17796;SDS011;55596;53.554;9.916;2022-08-19T06:04:30;32.30;;;20.90;;
17796;SDS011;55596;53.554;9.916;2022-08-19T06:06:56;38.23;;;21.50;;
17796;SDS011;55596;53.554;9.916;2022-08-19T06:09:23;33.70;;;20.00;;
17796;SDS011;55596;53.554;9.916;2022-08-19T06:11:52;33.33;;;19.43;;
17796;SDS011;55596;53.554;9.916;2022-08-19T06:14:21;34.37;;;20.73;;
17796;SDS011;55596;53.554;9.916;2022-08-19T06:16:51;31.23;;;19.23;;
17796;SDS011;55596;53.554;9.916;2022-08-19T06:19:19;27.57;;;17.63;;
17796;SDS011;55596;53.554;9.916;2022-08-19T06:21:49;26.10;;;17.23;;
17796;SDS011;55596;53.554;9.916;2022-08-19T06:24:18;27.30;;;16.53;;
17796;SDS011;55596;53.554;9.916;2022-08-19T06:26:48;27.00;;;15.83;;
17796;SDS011;55596;53.554;9.916;2022-08-19T06:29:17;27.10;;;16.37;;
17796;SDS011;55596;53.554;9.916;2022-08-19T06:31:45;27.60;;;14.43;;
17796;SDS011;55596;53.554;9.916;2022-08-19T06:34:15;23.27;;;14.40;;
17796;SDS011;55596;53.554;9.916;2022-08-19T06:36:44;29.07;;;15.07;;
17796;SDS011;55596;53.554;9.916;2022-08-19T06:39:13;22.77;;;14.90;;
17796;SDS011;55596;53.554;9.916;2022-08-19T06:41:41;30.40;;;15.50;;
17796;SDS011;55596;53.554;9.916;2022-08-19T06:44:09;24.67;;;15.13;;
17796;SDS011;55596;53.554;9.916;2022-08-19T06:46:37;25.07;;;14.23;;
17796;SDS011;55596;53.554;9.916;2022-08-19T06:49:05;23.97;;;13.90;;
17796;SDS011;55596;53.554;9.916;2022-08-19T06:51:36;23.07;;;13.13;;
17796;SDS011;55596;53.554;9.916;2022-08-19T06:54:04;22.33;;;12.57;;
17796;SDS011;55596;53.554;9.916;2022-08-19T06:56:31;25.33;;;12.37;;
17796;SDS011;55596;53.554;9.916;2022-08-19T06:58:59;20.87;;;12.57;;
17796;SDS011;55596;53.554;9.916;2022-08-19T07:01:27;19.80;;;11.50;;
17796;SDS011;55596;53.554;9.916;2022-08-19T07:03:54;20.60;;;10.90;;
17796;SDS011;55596;53.554;9.916;2022-08-19T07:06:21;28.83;;;10.37;;
17796;SDS011;55596;53.554;9.916;2022-08-19T07:08:49;19.80;;;11.27;;
17796;SDS011;55596;53.554;9.916;2022-08-19T07:11:17;20.50;;;10.47;;
17796;SDS011;55596;53.554;9.916;2022-08-19T07:13:45;22.57;;;10.30;;
17796;SDS011;55596;53.554;9.916;2022-08-19T07:16:15;13.97;;;9.47;;
17796;SDS011;55596;53.554;9.916;2022-08-19T07:18:44;23.03;;;10.70;;
17796;SDS011;55596;53.554;9.916;2022-08-19T07:21:12;21.67;;;9.67;;
17796;SDS011;55596;53.554;9.916;2022-08-19T07:23:41;14.80;;;9.10;;
17796;SDS011;55596;53.554;9.916;2022-08-19T07:26:12;16.67;;;8.30;;
17796;SDS011;55596;53.554;9.916;2022-08-19T07:28:40;16.10;;;8.30;;
17796;SDS011;55596;53.554;9.916;2022-08-19T07:31:10;17.07;;;8.33;;
17796;SDS011;55596;53.554;9.916;2022-08-19T07:33:38;12.90;;;8.20;;
17796;SDS011;55596;53.554;9.916;2022-08-19T07:36:08;12.20;;;7.40;;
17796;SDS011;55596;53.554;9.916;2022-08-19T07:38:36;11.97;;;7.73;;
17796;SDS011;55596;53.554;9.916;2022-08-19T07:41:05;18.30;;;7.77;;
17796;SDS011;55596;53.554;9.916;2022-08-19T07:43:34;16.40;;;7.80;;
17796;SDS011;55596;53.554;9.916;2022-08-19T07:46:01;12.80;;;7.20;;
17796;SDS011;55596;53.554;9.916;2022-08-19T07:48:29;11.23;;;7.20;;
17796;SDS011;55596;53.554;9.916;2022-08-19T07:50:57;10.20;;;7.60;;
17796;SDS011;55596;53.554;9.916;2022-08-19T07:53:27;12.83;;;7.73;;
17796;SDS011;55596;53.554;9.916;2022-08-19T07:55:55;12.03;;;6.67;;
17796;SDS011;55596;53.554;9.916;2022-08-19T07:58:24;18.03;;;6.97;;
17796;SDS011;55596;53.554;9.916;2022-08-19T08:00:53;12.47;;;8.03;;
17796;SDS011;55596;53.554;9.916;2022-08-19T08:03:21;14.67;;;7.20;;
17796;SDS011;55596;53.554;9.916;2022-08-19T08:06:09;9.87;;;7.17;;
17796;SDS011;55596;53.554;9.916;2022-08-19T08:08:54;10.83;;;7.30;;
17796;SDS011;55596;53.554;9.916;2022-08-19T08:11:46;18.13;;;9.87;;
17796;SDS011;55596;53.554;9.916;2022-08-19T08:14:16;12.43;;;7.67;;
17796;SDS011;55596;53.554;9.916;2022-08-19T08:16:46;13.00;;;9.07;;
17796;SDS011;55596;53.554;9.916;2022-08-19T08:19:16;14.70;;;9.40;;
17796;SDS011;55596;53.554;9.916;2022-08-19T08:21:44;13.87;;;9.63;;
17796;SDS011;55596;53.554;9.916;2022-08-19T08:24:11;20.60;;;10.17;;
17796;SDS011;55596;53.554;9.916;2022-08-19T08:26:37;15.70;;;10.57;;
17796;SDS011;55596;53.554;9.916;2022-08-19T08:29:05;21.57;;;11.10;;
17796;SDS011;55596;53.554;9.916;2022-08-19T08:31:37;17.13;;;10.90;;
17796;SDS011;55596;53.554;9.916;2022-08-19T08:34:07;15.93;;;11.70;;
17796;SDS011;55596;53.554;9.916;2022-08-19T08:36:35;21.57;;;13.20;;
17796;SDS011;55596;53.554;9.916;2022-08-19T08:39:06;21.97;;;12.00;;
17796;SDS011;55596;53.554;9.916;2022-08-19T08:41:34;17.10;;;12.13;;
17796;SDS011;55596;53.554;9.916;2022-08-19T08:44:11;19.30;;;12.40;;
17796;SDS011;55596;53.554;9.916;2022-08-19T08:46:44;22.50;;;12.47;;
17796;SDS011;55596;53.554;9.916;2022-08-19T08:49:20;18.70;;;12.03;;
17796;SDS011;55596;53.554;9.916;2022-08-19T08:51:57;20.93;;;12.90;;
17796;SDS011;55596;53.554;9.916;2022-08-19T08:54:30;21.47;;;11.50;;
17796;SDS011;55596;53.554;9.916;2022-08-19T08:57:02;17.13;;;11.53;;
17796;SDS011;55596;53.554;9.916;2022-08-19T08:59:34;23.40;;;12.63;;
17796;SDS011;55596;53.554;9.916;2022-08-19T09:02:04;19.97;;;12.40;;
17796;SDS011;55596;53.554;9.916;2022-08-19T09:04:32;18.33;;;11.90;;
17796;SDS011;55596;53.554;9.916;2022-08-19T09:07:03;19.97;;;12.90;;
17796;SDS011;55596;53.554;9.916;2022-08-19T09:09:49;18.43;;;11.80;;
17796;SDS011;55596;53.554;9.916;2022-08-19T09:12:19;16.03;;;10.83;;
17796;SDS011;55596;53.554;9.916;2022-08-19T09:14:53;17.33;;;12.00;;
17796;SDS011;55596;53.554;9.916;2022-08-19T09:17:24;21.10;;;12.93;;
17796;SDS011;55596;53.554;9.916;2022-08-19T09:19:58;18.33;;;10.60;;
17796;SDS011;55596;53.554;9.916;2022-08-19T09:22:29;14.67;;;9.63;;
17796;SDS011;55596;53.554;9.916;2022-08-19T09:24:56;13.40;;;9.60;;
17796;SDS011;55596;53.554;9.916;2022-08-19T09:27:24;17.30;;;10.30;;
17796;SDS011;55596;53.554;9.916;2022-08-19T09:29:53;17.33;;;9.85;;
17796;SDS011;55596;53.554;9.916;2022-08-19T09:32:20;14.13;;;9.30;;
17796;SDS011;55596;53.554;9.916;2022-08-19T09:34:48;14.63;;;9.27;;
17796;SDS011;55596;53.554;9.916;2022-08-19T09:37:16;12.20;;;9.53;;
17796;SDS011;55596;53.554;9.916;2022-08-19T09:39:43;16.73;;;8.73;;
17796;SDS011;55596;53.554;9.916;2022-08-19T09:42:10;14.33;;;9.40;;
17796;SDS011;55596;53.554;9.916;2022-08-19T09:44:39;21.93;;;9.80;;
17796;SDS011;55596;53.554;9.916;2022-08-19T09:47:06;14.73;;;9.87;;
17796;SDS011;55596;53.554;9.916;2022-08-19T09:49:33;16.80;;;9.80;;
17796;SDS011;55596;53.554;9.916;2022-08-19T09:52:00;18.63;;;10.20;;
17796;SDS011;55596;53.554;9.916;2022-08-19T09:54:29;15.13;;;9.80;;
17796;SDS011;55596;53.554;9.916;2022-08-19T09:56:57;14.37;;;10.30;;
17796;SDS011;55596;53.554;9.916;2022-08-19T09:59:25;14.57;;;9.60;;
17796;SDS011;55596;53.554;9.916;2022-08-19T10:01:52;15.43;;;10.00;;
17796;SDS011;55596;53.554;9.916;2022-08-19T10:04:19;12.63;;;9.40;;
17796;SDS011;55596;53.554;9.916;2022-08-19T10:06:47;18.23;;;12.40;;
17796;SDS011;55596;53.554;9.916;2022-08-19T10:09:17;17.17;;;12.43;;
17796;SDS011;55596;53.554;9.916;2022-08-19T10:11:45;19.00;;;13.13;;
17796;SDS011;55596;53.554;9.916;2022-08-19T10:14:14;19.50;;;12.00;;
17796;SDS011;55596;53.554;9.916;2022-08-19T10:16:42;25.17;;;12.93;;
17796;SDS011;55596;53.554;9.916;2022-08-19T10:19:09;20.63;;;12.83;;
17796;SDS011;55596;53.554;9.916;2022-08-19T10:21:36;19.07;;;14.10;;
17796;SDS011;55596;53.554;9.916;2022-08-19T10:24:04;18.03;;;14.07;;
17796;SDS011;55596;53.554;9.916;2022-08-19T10:26:33;19.70;;;13.67;;
17796;SDS011;55596;53.554;9.916;2022-08-19T10:29:04;20.17;;;13.70;;
17796;SDS011;55596;53.554;9.916;2022-08-19T10:31:32;20.07;;;12.97;;
17796;SDS011;55596;53.554;9.916;2022-08-19T10:34:00;19.23;;;12.87;;
17796;SDS011;55596;53.554;9.916;2022-08-19T10:36:27;17.70;;;12.60;;
17796;SDS011;55596;53.554;9.916;2022-08-19T10:38:57;24.03;;;15.07;;
17796;SDS011;55596;53.554;9.916;2022-08-19T10:41:28;18.93;;;13.87;;
17796;SDS011;55596;53.554;9.916;2022-08-19T10:43:58;22.97;;;14.20;;
17796;SDS011;55596;53.554;9.916;2022-08-19T10:46:27;20.60;;;14.70;;
17796;SDS011;55596;53.554;9.916;2022-08-19T10:48:56;18.53;;;14.33;;
17796;SDS011;55596;53.554;9.916;2022-08-19T10:51:23;16.90;;;12.93;;
17796;SDS011;55596;53.554;9.916;2022-08-19T10:54:08;18.57;;;12.80;;
17796;SDS011;55596;53.554;9.916;2022-08-19T10:56:34;16.47;;;12.57;;
17796;SDS011;55596;53.554;9.916;2022-08-19T10:59:20;24.33;;;14.03;;
17796;SDS011;55596;53.554;9.916;2022-08-19T11:01:50;21.63;;;13.27;;
17796;SDS011;55596;53.554;9.916;2022-08-19T11:04:18;22.27;;;14.77;;
17796;SDS011;55596;53.554;9.916;2022-08-19T11:06:48;17.45;;;12.68;;
17796;SDS011;55596;53.554;9.916;2022-08-19T11:09:16;17.77;;;12.73;;
17796;SDS011;55596;53.554;9.916;2022-08-19T11:11:44;23.90;;;14.82;;
17796;SDS011;55596;53.554;9.916;2022-08-19T11:14:13;19.50;;;12.65;;
17796;SDS011;55596;53.554;9.916;2022-08-19T11:16:41;19.35;;;14.30;;
17796;SDS011;55596;53.554;9.916;2022-08-19T11:19:10;17.75;;;12.27;;
17796;SDS011;55596;53.554;9.916;2022-08-19T11:21:39;15.23;;;11.15;;
17796;SDS011;55596;53.554;9.916;2022-08-19T11:24:09;16.60;;;11.82;;
17796;SDS011;55596;53.554;9.916;2022-08-19T11:26:38;18.63;;;13.30;;
17796;SDS011;55596;53.554;9.916;2022-08-19T11:29:07;15.05;;;11.55;;
17796;SDS011;55596;53.554;9.916;2022-08-19T11:31:38;18.27;;;12.07;;
17796;SDS011;55596;53.554;9.916;2022-08-19T11:34:07;17.35;;;12.38;;
17796;SDS011;55596;53.554;9.916;2022-08-19T11:36:39;15.70;;;11.65;;
17796;SDS011;55596;53.554;9.916;2022-08-19T11:39:07;17.95;;;11.68;;
17796;SDS011;55596;53.554;9.916;2022-08-19T11:41:35;15.13;;;10.88;;
17796;SDS011;55596;53.554;9.916;2022-08-19T11:44:03;12.88;;;10.60;;
17796;SDS011;55596;53.554;9.916;2022-08-19T11:46:32;12.57;;;10.35;;
17796;SDS011;55596;53.554;9.916;2022-08-19T11:49:04;12.43;;;10.20;;
17796;SDS011;55596;53.554;9.916;2022-08-19T11:51:34;14.23;;;10.68;;
17796;SDS011;55596;53.554;9.916;2022-08-19T11:54:03;16.00;;;10.77;;
17796;SDS011;55596;53.554;9.916;2022-08-19T11:56:31;15.98;;;11.88;;
17796;SDS011;55596;53.554;9.916;2022-08-19T11:59:00;19.90;;;13.23;;
17796;SDS011;55596;53.554;9.916;2022-08-19T12:01:27;14.20;;;12.52;;
17796;SDS011;55596;53.554;9.916;2022-08-19T12:03:55;15.82;;;12.70;;
17796;SDS011;55596;53.554;9.916;2022-08-19T12:06:24;13.73;;;12.30;;
17796;SDS011;55596;53.554;9.916;2022-08-19T12:08:55;14.32;;;11.80;;
17796;SDS011;55596;53.554;9.916;2022-08-19T12:11:23;14.40;;;12.07;;
17796;SDS011;55596;53.554;9.916;2022-08-19T12:13:50;17.27;;;10.77;;
17796;SDS011;55596;53.554;9.916;2022-08-19T12:16:20;12.18;;;9.98;;
17796;SDS011;55596;53.554;9.916;2022-08-19T12:18:50;11.65;;;10.45;;
17796;SDS011;55596;53.554;9.916;2022-08-19T12:21:18;11.70;;;9.82;;
17796;SDS011;55596;53.554;9.916;2022-08-19T12:23:47;13.88;;;9.57;;
17796;SDS011;55596;53.554;9.916;2022-08-19T12:26:17;12.52;;;9.00;;
17796;SDS011;55596;53.554;9.916;2022-08-19T12:28:45;11.93;;;8.02;;
17796;SDS011;55596;53.554;9.916;2022-08-19T12:31:13;8.60;;;7.30;;
17796;SDS011;55596;53.554;9.916;2022-08-19T12:33:40;9.77;;;8.30;;
17796;SDS011;55596;53.554;9.916;2022-08-19T12:36:09;9.63;;;8.57;;
17796;SDS011;55596;53.554;9.916;2022-08-19T12:38:38;9.30;;;8.38;;
17796;SDS011;55596;53.554;9.916;2022-08-19T12:41:08;11.85;;;10.02;;
17796;SDS011;55596;53.554;9.916;2022-08-19T12:43:38;10.02;;;9.07;;
17796;SDS011;55596;53.554;9.916;2022-08-19T12:46:06;9.85;;;8.85;;
17796;SDS011;55596;53.554;9.916;2022-08-19T12:48:33;10.52;;;9.10;;
17796;SDS011;55596;53.554;9.916;2022-08-19T12:51:01;11.27;;;8.70;;
17796;SDS011;55596;53.554;9.916;2022-08-19T12:53:33;9.13;;;8.07;;
17796;SDS011;55596;53.554;9.916;2022-08-19T12:56:00;9.43;;;8.43;;
17796;SDS011;55596;53.554;9.916;2022-08-19T12:58:28;8.88;;;7.97;;
17796;SDS011;55596;53.554;9.916;2022-08-19T13:00:57;9.93;;;8.90;;
17796;SDS011;55596;53.554;9.916;2022-08-19T13:03:24;8.95;;;8.07;;
17796;SDS011;55596;53.554;9.916;2022-08-19T13:05:54;10.15;;;9.07;;
17796;SDS011;55596;53.554;9.916;2022-08-19T13:08:21;9.25;;;8.40;;
17796;SDS011;55596;53.554;9.916;2022-08-19T13:10:48;9.25;;;8.27;;
17796;SDS011;55596;53.554;9.916;2022-08-19T13:13:16;11.57;;;8.70;;
17796;SDS011;55596;53.554;9.916;2022-08-19T13:15:43;10.27;;;9.27;;
17796;SDS011;55596;53.554;9.916;2022-08-19T13:18:15;12.23;;;9.68;;
17796;SDS011;55596;53.554;9.916;2022-08-19T13:20:42;11.32;;;10.27;;
17796;SDS011;55596;53.554;9.916;2022-08-19T13:23:09;11.05;;;9.77;;
17796;SDS011;55596;53.554;9.916;2022-08-19T13:25:36;11.15;;;9.70;;
17796;SDS011;55596;53.554;9.916;2022-08-19T13:28:03;11.57;;;10.25;;
17796;SDS011;55596;53.554;9.916;2022-08-19T13:30:31;10.85;;;9.75;;
17796;SDS011;55596;53.554;9.916;2022-08-19T13:33:18;10.13;;;9.10;;
17796;SDS011;55596;53.554;9.916;2022-08-19T13:35:46;11.48;;;10.35;;
17796;SDS011;55596;53.554;9.916;2022-08-19T13:38:15;11.55;;;10.38;;
17796;SDS011;55596;53.554;9.916;2022-08-19T13:40:45;11.02;;;9.20;;
17796;SDS011;55596;53.554;9.916;2022-08-19T13:43:15;10.68;;;9.73;;
17796;SDS011;55596;53.554;9.916;2022-08-19T13:45:42;10.05;;;9.15;;
17796;SDS011;55596;53.554;9.916;2022-08-19T13:48:10;10.68;;;9.57;;
17796;SDS011;55596;53.554;9.916;2022-08-19T13:50:40;12.38;;;10.45;;
17796;SDS011;55596;53.554;9.916;2022-08-19T13:53:09;12.10;;;10.85;;
17796;SDS011;55596;53.554;9.916;2022-08-19T13:55:36;13.20;;;11.80;;
17796;SDS011;55596;53.554;9.916;2022-08-19T13:58:04;12.40;;;11.10;;
17796;SDS011;55596;53.554;9.916;2022-08-19T14:00:32;10.95;;;9.95;;
17796;SDS011;55596;53.554;9.916;2022-08-19T14:03:01;11.93;;;10.82;;
17796;SDS011;55596;53.554;9.916;2022-08-19T14:05:29;12.45;;;10.23;;
17796;SDS011;55596;53.554;9.916;2022-08-19T14:07:58;12.45;;;10.63;;
17796;SDS011;55596;53.554;9.916;2022-08-19T14:10:27;11.63;;;10.40;;
17796;SDS011;55596;53.554;9.916;2022-08-19T14:12:57;11.98;;;10.77;;
17796;SDS011;55596;53.554;9.916;2022-08-19T14:15:27;11.73;;;10.25;;
17796;SDS011;55596;53.554;9.916;2022-08-19T14:17:54;10.45;;;9.10;;
17796;SDS011;55596;53.554;9.916;2022-08-19T14:20:22;10.27;;;9.27;;
17796;SDS011;55596;53.554;9.916;2022-08-19T14:22:49;11.80;;;9.32;;
17796;SDS011;55596;53.554;9.916;2022-08-19T14:25:19;11.40;;;8.93;;
17796;SDS011;55596;53.554;9.916;2022-08-19T14:27:48;10.93;;;9.50;;
17796;SDS011;55596;53.554;9.916;2022-08-19T14:30:15;12.93;;;8.60;;
17796;SDS011;55596;53.554;9.916;2022-08-19T14:32:44;11.25;;;10.02;;
17796;SDS011;55596;53.554;9.916;2022-08-19T14:35:12;10.88;;;9.77;;